aviador You're here:

KGED Decoded Metar

GEORGETOWN in DE, USA
Report Time2017-08-18 10:04:00
UTC Time2017-08-18 10:49:48
Flight Rules vfr VFR
Wind190° at 07 kt
W.Decomp.*RWY 22: 6.7 kt HW 2.2 kt LCW
RWY 28: 1.5 kt HW 6.8 kt LCW
W.Rank190° ranks 5
Current wind is below 190° avg. (7.5)
Visibility9999 m
Phenomena:N/A
Clouds:Scattered 008 Hf
Scattered 015 Hf
Broken 100 Hf
Expected CloudBase > 800 ft AGL from Temp-Dew spread
Ceiling10,000 ft
Temp25°C (ISA +10)
Dew Point23°C (89% RH)
QNH1013 hPa
Density Alt1,604 ft
Elevation62 ft
Report Wrong Elevation
Raw Report
KGED 181004Z AUTO 19007KT 10SM SCT008 SCT015 BKN100 25/23 A2990
RMK AO2 T02500233=

Extra information for KGED:More info

Metar Taf Metar & Taf Last 4 Metars F.Rules Stats Wind Profile Meteogram Temp Stats Airport Information Weather charts Add Link Nearby VenuesMetar ALERT Operation Metar Decoded Social comments

AIRNAV info for KGED